sensor_id;sensor_type;location;lat;lon;timestamp;P1;durP1;ratioP1;P2;durP2;ratioP2
67640;SDS011;54434;50.096;20.082;2023-11-22T00:00:16;22.70;;;12.90;;
67640;SDS011;54434;50.096;20.082;2023-11-22T00:03:15;29.20;;;15.80;;
67640;SDS011;54434;50.096;20.082;2023-11-22T00:05:51;24.10;;;14.30;;
67640;SDS011;54434;50.096;20.082;2023-11-22T00:08:27;26.20;;;13.70;;
67640;SDS011;54434;50.096;20.082;2023-11-22T00:11:05;24.00;;;13.10;;
67640;SDS011;54434;50.096;20.082;2023-11-22T00:13:42;28.10;;;15.80;;
67640;SDS011;54434;50.096;20.082;2023-11-22T00:16:19;23.80;;;12.70;;
67640;SDS011;54434;50.096;20.082;2023-11-22T00:18:56;20.90;;;12.40;;
67640;SDS011;54434;50.096;20.082;2023-11-22T00:21:34;24.60;;;12.90;;
67640;SDS011;54434;50.096;20.082;2023-11-22T00:24:11;22.40;;;11.30;;
67640;SDS011;54434;50.096;20.082;2023-11-22T00:26:48;22.80;;;11.60;;
67640;SDS011;54434;50.096;20.082;2023-11-22T00:29:24;20.90;;;12.00;;
67640;SDS011;54434;50.096;20.082;2023-11-22T00:32:00;23.40;;;12.70;;
67640;SDS011;54434;50.096;20.082;2023-11-22T00:34:38;21.80;;;11.70;;
67640;SDS011;54434;50.096;20.082;2023-11-22T00:37:14;23.90;;;12.90;;
67640;SDS011;54434;50.096;20.082;2023-11-22T00:39:51;23.20;;;12.80;;
67640;SDS011;54434;50.096;20.082;2023-11-22T00:42:27;20.60;;;11.20;;
67640;SDS011;54434;50.096;20.082;2023-11-22T00:45:05;25.80;;;12.30;;
67640;SDS011;54434;50.096;20.082;2023-11-22T00:47:43;18.40;;;11.00;;
67640;SDS011;54434;50.096;20.082;2023-11-22T00:50:20;21.70;;;11.80;;
67640;SDS011;54434;50.096;20.082;2023-11-22T00:52:56;26.10;;;13.40;;
67640;SDS011;54434;50.096;20.082;2023-11-22T00:55:33;23.80;;;13.40;;
67640;SDS011;54434;50.096;20.082;2023-11-22T00:58:09;23.70;;;12.10;;
67640;SDS011;54434;50.096;20.082;2023-11-22T01:00:46;23.20;;;12.80;;
67640;SDS011;54434;50.096;20.082;2023-11-22T01:03:22;22.20;;;13.00;;
67640;SDS011;54434;50.096;20.082;2023-11-22T01:05:59;27.40;;;14.60;;
67640;SDS011;54434;50.096;20.082;2023-11-22T01:08:36;27.40;;;15.30;;
67640;SDS011;54434;50.096;20.082;2023-11-22T01:11:12;22.10;;;12.30;;
67640;SDS011;54434;50.096;20.082;2023-11-22T01:13:49;27.10;;;13.80;;
67640;SDS011;54434;50.096;20.082;2023-11-22T01:16:25;23.00;;;11.60;;
67640;SDS011;54434;50.096;20.082;2023-11-22T01:19:02;21.40;;;12.20;;
67640;SDS011;54434;50.096;20.082;2023-11-22T01:21:38;19.20;;;10.00;;
67640;SDS011;54434;50.096;20.082;2023-11-22T01:24:15;23.40;;;13.50;;
67640;SDS011;54434;50.096;20.082;2023-11-22T01:26:52;23.10;;;13.10;;
67640;SDS011;54434;50.096;20.082;2023-11-22T01:29:29;23.70;;;11.90;;
67640;SDS011;54434;50.096;20.082;2023-11-22T01:32:08;23.00;;;13.00;;
67640;SDS011;54434;50.096;20.082;2023-11-22T01:34:46;24.60;;;13.40;;
67640;SDS011;54434;50.096;20.082;2023-11-22T01:37:23;23.40;;;12.00;;
67640;SDS011;54434;50.096;20.082;2023-11-22T01:40:02;23.70;;;13.00;;
67640;SDS011;54434;50.096;20.082;2023-11-22T01:42:42;21.80;;;11.70;;
67640;SDS011;54434;50.096;20.082;2023-11-22T01:45:19;20.70;;;11.70;;
67640;SDS011;54434;50.096;20.082;2023-11-22T01:47:56;23.90;;;12.60;;
67640;SDS011;54434;50.096;20.082;2023-11-22T01:50:35;24.00;;;13.00;;
67640;SDS011;54434;50.096;20.082;2023-11-22T01:53:14;26.50;;;13.40;;
67640;SDS011;54434;50.096;20.082;2023-11-22T01:55:55;22.50;;;11.50;;
67640;SDS011;54434;50.096;20.082;2023-11-22T01:58:32;23.00;;;13.20;;
67640;SDS011;54434;50.096;20.082;2023-11-22T02:01:09;24.10;;;12.70;;
67640;SDS011;54434;50.096;20.082;2023-11-22T02:03:48;24.00;;;12.00;;
67640;SDS011;54434;50.096;20.082;2023-11-22T02:06:26;27.30;;;13.60;;
67640;SDS011;54434;50.096;20.082;2023-11-22T02:09:05;26.50;;;13.90;;
67640;SDS011;54434;50.096;20.082;2023-11-22T02:11:47;25.90;;;13.60;;
67640;SDS011;54434;50.096;20.082;2023-11-22T02:14:23;25.30;;;12.60;;
67640;SDS011;54434;50.096;20.082;2023-11-22T02:16:59;26.10;;;13.50;;
67640;SDS011;54434;50.096;20.082;2023-11-22T02:19:36;25.80;;;13.10;;
67640;SDS011;54434;50.096;20.082;2023-11-22T02:22:12;28.70;;;14.60;;
67640;SDS011;54434;50.096;20.082;2023-11-22T02:24:50;26.90;;;13.50;;
67640;SDS011;54434;50.096;20.082;2023-11-22T02:27:26;33.10;;;15.20;;
67640;SDS011;54434;50.096;20.082;2023-11-22T02:30:03;24.40;;;13.10;;
67640;SDS011;54434;50.096;20.082;2023-11-22T02:32:41;26.80;;;14.00;;
67640;SDS011;54434;50.096;20.082;2023-11-22T02:35:19;27.80;;;11.80;;
67640;SDS011;54434;50.096;20.082;2023-11-22T02:37:55;26.00;;;13.70;;
67640;SDS011;54434;50.096;20.082;2023-11-22T02:40:32;28.50;;;14.30;;
67640;SDS011;54434;50.096;20.082;2023-11-22T02:43:09;28.40;;;14.80;;
67640;SDS011;54434;50.096;20.082;2023-11-22T02:45:45;27.30;;;13.90;;
67640;SDS011;54434;50.096;20.082;2023-11-22T02:48:22;24.50;;;13.50;;
67640;SDS011;54434;50.096;20.082;2023-11-22T02:50:58;26.40;;;13.70;;
67640;SDS011;54434;50.096;20.082;2023-11-22T02:53:36;27.00;;;14.70;;
67640;SDS011;54434;50.096;20.082;2023-11-22T02:56:13;29.60;;;14.30;;
67640;SDS011;54434;50.096;20.082;2023-11-22T02:58:50;30.00;;;15.80;;
67640;SDS011;54434;50.096;20.082;2023-11-22T03:01:27;27.10;;;12.00;;
67640;SDS011;54434;50.096;20.082;2023-11-22T03:04:04;32.00;;;16.00;;
67640;SDS011;54434;50.096;20.082;2023-11-22T03:06:42;24.50;;;13.60;;
67640;SDS011;54434;50.096;20.082;2023-11-22T03:09:18;24.60;;;12.20;;
67640;SDS011;54434;50.096;20.082;2023-11-22T03:11:56;25.40;;;12.30;;
67640;SDS011;54434;50.096;20.082;2023-11-22T03:14:33;28.50;;;14.50;;
67640;SDS011;54434;50.096;20.082;2023-11-22T03:17:10;34.50;;;16.50;;
67640;SDS011;54434;50.096;20.082;2023-11-22T03:19:49;25.60;;;12.20;;
67640;SDS011;54434;50.096;20.082;2023-11-22T03:22:26;28.60;;;14.50;;
67640;SDS011;54434;50.096;20.082;2023-11-22T03:25:07;28.70;;;15.50;;
67640;SDS011;54434;50.096;20.082;2023-11-22T03:27:45;26.50;;;13.00;;
67640;SDS011;54434;50.096;20.082;2023-11-22T03:30:22;28.70;;;15.00;;
67640;SDS011;54434;50.096;20.082;2023-11-22T03:32:58;30.10;;;14.90;;
67640;SDS011;54434;50.096;20.082;2023-11-22T03:35:35;22.20;;;11.00;;
67640;SDS011;54434;50.096;20.082;2023-11-22T03:38:12;26.40;;;13.50;;
67640;SDS011;54434;50.096;20.082;2023-11-22T03:40:49;26.20;;;12.90;;
67640;SDS011;54434;50.096;20.082;2023-11-22T03:43:26;32.20;;;15.70;;
67640;SDS011;54434;50.096;20.082;2023-11-22T03:46:03;27.40;;;14.60;;
67640;SDS011;54434;50.096;20.082;2023-11-22T03:48:39;26.90;;;12.90;;
67640;SDS011;54434;50.096;20.082;2023-11-22T03:51:16;28.60;;;14.90;;
67640;SDS011;54434;50.096;20.082;2023-11-22T03:53:54;29.40;;;15.00;;
67640;SDS011;54434;50.096;20.082;2023-11-22T03:56:30;26.60;;;14.10;;
67640;SDS011;54434;50.096;20.082;2023-11-22T03:59:07;27.00;;;14.10;;
67640;SDS011;54434;50.096;20.082;2023-11-22T04:01:44;28.90;;;14.30;;
67640;SDS011;54434;50.096;20.082;2023-11-22T04:04:20;26.40;;;14.70;;
67640;SDS011;54434;50.096;20.082;2023-11-22T04:06:57;27.40;;;13.50;;
67640;SDS011;54434;50.096;20.082;2023-11-22T04:09:33;23.00;;;12.10;;
67640;SDS011;54434;50.096;20.082;2023-11-22T04:12:11;28.40;;;15.40;;
67640;SDS011;54434;50.096;20.082;2023-11-22T04:14:47;24.50;;;11.70;;
67640;SDS011;54434;50.096;20.082;2023-11-22T04:17:25;24.70;;;13.20;;
67640;SDS011;54434;50.096;20.082;2023-11-22T04:20:02;23.10;;;12.40;;
67640;SDS011;54434;50.096;20.082;2023-11-22T04:22:43;24.80;;;13.00;;
67640;SDS011;54434;50.096;20.082;2023-11-22T04:25:20;23.00;;;11.70;;
67640;SDS011;54434;50.096;20.082;2023-11-22T04:27:59;22.40;;;12.10;;
67640;SDS011;54434;50.096;20.082;2023-11-22T04:30:35;24.00;;;11.10;;
67640;SDS011;54434;50.096;20.082;2023-11-22T04:33:12;25.10;;;13.00;;
67640;SDS011;54434;50.096;20.082;2023-11-22T04:35:49;23.80;;;12.60;;
67640;SDS011;54434;50.096;20.082;2023-11-22T04:38:26;23.80;;;12.60;;
67640;SDS011;54434;50.096;20.082;2023-11-22T04:41:02;25.60;;;13.50;;
67640;SDS011;54434;50.096;20.082;2023-11-22T04:43:39;27.30;;;13.70;;
67640;SDS011;54434;50.096;20.082;2023-11-22T04:46:15;27.10;;;14.10;;
67640;SDS011;54434;50.096;20.082;2023-11-22T04:48:52;27.80;;;14.60;;
67640;SDS011;54434;50.096;20.082;2023-11-22T04:51:29;24.80;;;14.00;;
67640;SDS011;54434;50.096;20.082;2023-11-22T04:54:06;24.70;;;13.70;;
67640;SDS011;54434;50.096;20.082;2023-11-22T04:56:43;29.50;;;15.70;;
67640;SDS011;54434;50.096;20.082;2023-11-22T04:59:19;30.50;;;14.70;;
67640;SDS011;54434;50.096;20.082;2023-11-22T05:01:56;29.80;;;15.60;;
67640;SDS011;54434;50.096;20.082;2023-11-22T05:04:33;28.70;;;14.40;;
67640;SDS011;54434;50.096;20.082;2023-11-22T05:07:10;27.30;;;13.70;;
67640;SDS011;54434;50.096;20.082;2023-11-22T05:09:47;26.50;;;13.00;;
67640;SDS011;54434;50.096;20.082;2023-11-22T05:12:23;26.00;;;13.80;;
67640;SDS011;54434;50.096;20.082;2023-11-22T05:15:00;21.50;;;11.50;;
67640;SDS011;54434;50.096;20.082;2023-11-22T05:17:37;26.70;;;12.70;;
67640;SDS011;54434;50.096;20.082;2023-11-22T05:20:14;25.50;;;13.20;;
67640;SDS011;54434;50.096;20.082;2023-11-22T05:22:50;30.30;;;16.00;;
67640;SDS011;54434;50.096;20.082;2023-11-22T05:25:27;24.40;;;13.70;;
67640;SDS011;54434;50.096;20.082;2023-11-22T05:28:03;29.50;;;13.80;;
67640;SDS011;54434;50.096;20.082;2023-11-22T05:30:40;25.80;;;13.60;;
67640;SDS011;54434;50.096;20.082;2023-11-22T05:33:17;41.40;;;18.40;;
67640;SDS011;54434;50.096;20.082;2023-11-22T05:35:54;25.40;;;12.60;;
67640;SDS011;54434;50.096;20.082;2023-11-22T05:38:30;24.10;;;12.90;;
67640;SDS011;54434;50.096;20.082;2023-11-22T05:41:08;26.20;;;12.70;;
67640;SDS011;54434;50.096;20.082;2023-11-22T05:43:45;26.90;;;14.10;;
67640;SDS011;54434;50.096;20.082;2023-11-22T05:46:22;26.40;;;14.60;;
67640;SDS011;54434;50.096;20.082;2023-11-22T05:48:59;21.70;;;10.90;;
67640;SDS011;54434;50.096;20.082;2023-11-22T05:51:35;25.30;;;13.80;;
67640;SDS011;54434;50.096;20.082;2023-11-22T05:54:12;26.50;;;13.40;;
67640;SDS011;54434;50.096;20.082;2023-11-22T05:56:50;24.00;;;11.00;;
67640;SDS011;54434;50.096;20.082;2023-11-22T05:59:27;28.10;;;13.30;;
67640;SDS011;54434;50.096;20.082;2023-11-22T06:02:05;26.30;;;14.30;;
67640;SDS011;54434;50.096;20.082;2023-11-22T06:04:42;26.80;;;14.00;;
67640;SDS011;54434;50.096;20.082;2023-11-22T06:07:19;29.50;;;14.90;;
67640;SDS011;54434;50.096;20.082;2023-11-22T06:09:55;28.50;;;14.30;;
67640;SDS011;54434;50.096;20.082;2023-11-22T06:12:32;30.50;;;15.10;;
67640;SDS011;54434;50.096;20.082;2023-11-22T06:15:10;25.10;;;12.70;;
67640;SDS011;54434;50.096;20.082;2023-11-22T06:17:47;31.90;;;14.90;;
67640;SDS011;54434;50.096;20.082;2023-11-22T06:20:25;27.40;;;13.70;;
67640;SDS011;54434;50.096;20.082;2023-11-22T06:23:02;26.90;;;14.30;;
67640;SDS011;54434;50.096;20.082;2023-11-22T06:25:38;28.60;;;13.50;;
67640;SDS011;54434;50.096;20.082;2023-11-22T06:28:16;23.10;;;11.40;;
67640;SDS011;54434;50.096;20.082;2023-11-22T06:30:53;28.30;;;14.40;;
67640;SDS011;54434;50.096;20.082;2023-11-22T06:33:29;22.20;;;11.40;;
67640;SDS011;54434;50.096;20.082;2023-11-22T06:36:07;26.10;;;13.30;;
67640;SDS011;54434;50.096;20.082;2023-11-22T06:38:45;26.90;;;12.60;;
67640;SDS011;54434;50.096;20.082;2023-11-22T06:41:22;24.20;;;12.90;;
67640;SDS011;54434;50.096;20.082;2023-11-22T06:43:59;24.20;;;11.90;;
67640;SDS011;54434;50.096;20.082;2023-11-22T06:46:37;27.30;;;13.50;;
67640;SDS011;54434;50.096;20.082;2023-11-22T06:49:13;24.60;;;11.80;;
67640;SDS011;54434;50.096;20.082;2023-11-22T06:51:50;22.30;;;11.30;;
67640;SDS011;54434;50.096;20.082;2023-11-22T06:54:27;20.80;;;10.00;;
67640;SDS011;54434;50.096;20.082;2023-11-22T06:57:05;21.20;;;10.20;;
67640;SDS011;54434;50.096;20.082;2023-11-22T06:59:42;19.80;;;10.40;;
67640;SDS011;54434;50.096;20.082;2023-11-22T07:02:18;21.40;;;10.60;;
67640;SDS011;54434;50.096;20.082;2023-11-22T07:04:55;20.90;;;11.00;;
67640;SDS011;54434;50.096;20.082;2023-11-22T07:07:32;24.60;;;11.30;;
67640;SDS011;54434;50.096;20.082;2023-11-22T07:10:11;19.30;;;9.70;;
67640;SDS011;54434;50.096;20.082;2023-11-22T07:12:49;21.40;;;10.50;;
67640;SDS011;54434;50.096;20.082;2023-11-22T07:15:25;19.10;;;10.20;;
67640;SDS011;54434;50.096;20.082;2023-11-22T07:18:02;18.00;;;9.20;;
67640;SDS011;54434;50.096;20.082;2023-11-22T07:20:39;17.40;;;9.80;;
67640;SDS011;54434;50.096;20.082;2023-11-22T07:23:16;18.80;;;9.90;;
67640;SDS011;54434;50.096;20.082;2023-11-22T07:25:53;18.40;;;9.90;;
67640;SDS011;54434;50.096;20.082;2023-11-22T07:28:29;20.10;;;8.80;;
67640;SDS011;54434;50.096;20.082;2023-11-22T07:31:11;16.50;;;8.10;;
67640;SDS011;54434;50.096;20.082;2023-11-22T07:33:48;16.60;;;8.80;;
67640;SDS011;54434;50.096;20.082;2023-11-22T07:36:24;19.30;;;8.90;;
67640;SDS011;54434;50.096;20.082;2023-11-22T07:39:02;14.00;;;7.40;;
67640;SDS011;54434;50.096;20.082;2023-11-22T07:41:39;20.00;;;10.10;;
67640;SDS011;54434;50.096;20.082;2023-11-22T07:44:16;15.60;;;8.20;;
67640;SDS011;54434;50.096;20.082;2023-11-22T07:46:52;16.70;;;8.60;;
67640;SDS011;54434;50.096;20.082;2023-11-22T07:49:28;16.30;;;8.60;;
67640;SDS011;54434;50.096;20.082;2023-11-22T07:52:06;17.60;;;8.40;;
67640;SDS011;54434;50.096;20.082;2023-11-22T07:57:22;16.00;;;8.30;;
67640;SDS011;54434;50.096;20.082;2023-11-22T07:59:59;16.40;;;8.90;;
67640;SDS011;54434;50.096;20.082;2023-11-22T08:02:46;17.20;;;8.50;;
67640;SDS011;54434;50.096;20.082;2023-11-22T08:05:23;17.50;;;8.90;;
67640;SDS011;54434;50.096;20.082;2023-11-22T08:08:02;15.10;;;8.20;;
67640;SDS011;54434;50.096;20.082;2023-11-22T08:10:42;16.50;;;8.10;;
67640;SDS011;54434;50.096;20.082;2023-11-22T08:13:18;21.40;;;10.00;;
67640;SDS011;54434;50.096;20.082;2023-11-22T08:15:56;22.20;;;10.40;;
67640;SDS011;54434;50.096;20.082;2023-11-22T08:18:32;19.10;;;10.60;;
67640;SDS011;54434;50.096;20.082;2023-11-22T08:21:10;22.60;;;10.00;;
67640;SDS011;54434;50.096;20.082;2023-11-22T08:23:46;21.50;;;10.90;;
67640;SDS011;54434;50.096;20.082;2023-11-22T08:26:23;21.30;;;10.80;;
67640;SDS011;54434;50.096;20.082;2023-11-22T08:29:00;21.10;;;11.00;;
67640;SDS011;54434;50.096;20.082;2023-11-22T08:31:36;21.80;;;11.10;;
67640;SDS011;54434;50.096;20.082;2023-11-22T08:34:13;20.80;;;10.90;;
67640;SDS011;54434;50.096;20.082;2023-11-22T08:36:50;19.50;;;10.20;;
67640;SDS011;54434;50.096;20.082;2023-11-22T08:39:30;24.60;;;12.80;;
67640;SDS011;54434;50.096;20.082;2023-11-22T08:42:08;28.50;;;12.20;;
67640;SDS011;54434;50.096;20.082;2023-11-22T08:44:46;25.40;;;12.70;;
67640;SDS011;54434;50.096;20.082;2023-11-22T08:47:23;21.80;;;11.90;;
67640;SDS011;54434;50.096;20.082;2023-11-22T08:50:00;22.80;;;10.60;;
67640;SDS011;54434;50.096;20.082;2023-11-22T08:52:39;20.40;;;10.50;;
67640;SDS011;54434;50.096;20.082;2023-11-22T08:55:16;18.00;;;10.10;;
67640;SDS011;54434;50.096;20.082;2023-11-22T08:57:55;18.40;;;9.40;;
67640;SDS011;54434;50.096;20.082;2023-11-22T09:00:32;21.90;;;10.10;;
67640;SDS011;54434;50.096;20.082;2023-11-22T09:03:09;14.70;;;7.80;;
67640;SDS011;54434;50.096;20.082;2023-11-22T09:05:47;13.70;;;7.10;;
67640;SDS011;54434;50.096;20.082;2023-11-22T09:08:24;13.70;;;6.60;;
67640;SDS011;54434;50.096;20.082;2023-11-22T09:11:03;14.40;;;7.00;;
67640;SDS011;54434;50.096;20.082;2023-11-22T09:13:41;15.80;;;7.00;;
67640;SDS011;54434;50.096;20.082;2023-11-22T09:16:18;13.30;;;7.20;;
67640;SDS011;54434;50.096;20.082;2023-11-22T09:18:58;12.10;;;6.70;;
67640;SDS011;54434;50.096;20.082;2023-11-22T09:21:35;11.00;;;6.90;;
67640;SDS011;54434;50.096;20.082;2023-11-22T09:24:13;14.00;;;7.40;;
67640;SDS011;54434;50.096;20.082;2023-11-22T09:26:49;22.00;;;9.50;;
67640;SDS011;54434;50.096;20.082;2023-11-22T09:29:26;23.40;;;11.40;;
67640;SDS011;54434;50.096;20.082;2023-11-22T09:32:03;24.80;;;12.10;;
67640;SDS011;54434;50.096;20.082;2023-11-22T09:34:40;23.80;;;12.00;;
67640;SDS011;54434;50.096;20.082;2023-11-22T09:37:17;21.60;;;11.20;;
67640;SDS011;54434;50.096;20.082;2023-11-22T09:39:54;23.70;;;11.40;;
67640;SDS011;54434;50.096;20.082;2023-11-22T09:42:33;23.70;;;11.70;;
67640;SDS011;54434;50.096;20.082;2023-11-22T09:45:11;22.10;;;9.60;;
67640;SDS011;54434;50.096;20.082;2023-11-22T09:47:51;21.30;;;10.10;;
67640;SDS011;54434;50.096;20.082;2023-11-22T09:50:34;20.30;;;10.60;;
67640;SDS011;54434;50.096;20.082;2023-11-22T09:53:22;23.40;;;11.20;;
67640;SDS011;54434;50.096;20.082;2023-11-22T09:56:08;21.00;;;10.60;;
67640;SDS011;54434;50.096;20.082;2023-11-22T09:58:47;21.40;;;11.20;;
67640;SDS011;54434;50.096;20.082;2023-11-22T10:01:28;23.50;;;11.70;;
67640;SDS011;54434;50.096;20.082;2023-11-22T10:04:07;18.30;;;9.30;;
67640;SDS011;54434;50.096;20.082;2023-11-22T10:06:45;19.70;;;10.00;;
67640;SDS011;54434;50.096;20.082;2023-11-22T10:09:22;21.50;;;11.20;;
67640;SDS011;54434;50.096;20.082;2023-11-22T10:12:03;21.40;;;9.90;;
67640;SDS011;54434;50.096;20.082;2023-11-22T10:14:41;22.00;;;11.80;;
67640;SDS011;54434;50.096;20.082;2023-11-22T10:17:17;20.60;;;10.70;;
67640;SDS011;54434;50.096;20.082;2023-11-22T10:19:55;21.50;;;10.40;;
67640;SDS011;54434;50.096;20.082;2023-11-22T10:22:31;22.60;;;10.40;;
67640;SDS011;54434;50.096;20.082;2023-11-22T10:25:21;18.70;;;9.70;;
67640;SDS011;54434;50.096;20.082;2023-11-22T10:27:58;19.50;;;10.90;;
67640;SDS011;54434;50.096;20.082;2023-11-22T10:30:34;18.60;;;10.00;;
67640;SDS011;54434;50.096;20.082;2023-11-22T10:33:14;21.70;;;11.70;;
67640;SDS011;54434;50.096;20.082;2023-11-22T10:35:52;23.10;;;11.50;;
67640;SDS011;54434;50.096;20.082;2023-11-22T10:38:29;25.70;;;12.60;;
67640;SDS011;54434;50.096;20.082;2023-11-22T10:41:08;24.60;;;10.90;;
67640;SDS011;54434;50.096;20.082;2023-11-22T10:43:47;20.90;;;10.00;;
67640;SDS011;54434;50.096;20.082;2023-11-22T10:46:28;19.10;;;10.20;;
67640;SDS011;54434;50.096;20.082;2023-11-22T10:49:06;21.00;;;10.90;;
67640;SDS011;54434;50.096;20.082;2023-11-22T10:51:46;17.10;;;9.30;;
67640;SDS011;54434;50.096;20.082;2023-11-22T10:54:26;22.70;;;10.50;;
67640;SDS011;54434;50.096;20.082;2023-11-22T10:57:04;24.40;;;11.20;;
67640;SDS011;54434;50.096;20.082;2023-11-22T10:59:42;20.30;;;9.90;;
67640;SDS011;54434;50.096;20.082;2023-11-22T11:02:23;19.20;;;10.30;;
67640;SDS011;54434;50.096;20.082;2023-11-22T11:05:15;17.50;;;8.90;;
67640;SDS011;54434;50.096;20.082;2023-11-22T11:08:02;19.10;;;10.30;;
67640;SDS011;54434;50.096;20.082;2023-11-22T11:10:45;20.10;;;9.80;;
67640;SDS011;54434;50.096;20.082;2023-11-22T11:13:23;19.50;;;10.50;;
67640;SDS011;54434;50.096;20.082;2023-11-22T11:16:09;19.70;;;9.80;;
67640;SDS011;54434;50.096;20.082;2023-11-22T11:18:50;22.10;;;9.80;;
67640;SDS011;54434;50.096;20.082;2023-11-22T11:21:28;20.80;;;10.40;;
67640;SDS011;54434;50.096;20.082;2023-11-22T11:24:04;22.50;;;10.80;;
67640;SDS011;54434;50.096;20.082;2023-11-22T11:26:41;21.60;;;9.60;;
67640;SDS011;54434;50.096;20.082;2023-11-22T11:29:36;21.80;;;10.20;;
67640;SDS011;54434;50.096;20.082;2023-11-22T11:32:32;17.40;;;8.80;;
67640;SDS011;54434;50.096;20.082;2023-11-22T11:35:10;20.60;;;10.20;;
67640;SDS011;54434;50.096;20.082;2023-11-22T11:38:00;17.50;;;8.60;;
67640;SDS011;54434;50.096;20.082;2023-11-22T11:40:37;18.00;;;9.00;;
67640;SDS011;54434;50.096;20.082;2023-11-22T11:43:14;16.60;;;8.90;;
67640;SDS011;54434;50.096;20.082;2023-11-22T11:45:55;19.20;;;9.60;;
67640;SDS011;54434;50.096;20.082;2023-11-22T11:48:35;18.60;;;10.00;;
67640;SDS011;54434;50.096;20.082;2023-11-22T11:51:15;18.60;;;9.30;;
67640;SDS011;54434;50.096;20.082;2023-11-22T11:53:52;15.50;;;7.80;;
67640;SDS011;54434;50.096;20.082;2023-11-22T11:56:30;18.90;;;9.70;;
67640;SDS011;54434;50.096;20.082;2023-11-22T11:59:09;18.50;;;9.20;;
67640;SDS011;54434;50.096;20.082;2023-11-22T12:01:45;19.40;;;9.10;;
67640;SDS011;54434;50.096;20.082;2023-11-22T12:04:28;15.50;;;8.40;;
67640;SDS011;54434;50.096;20.082;2023-11-22T12:07:12;18.40;;;9.80;;
67640;SDS011;54434;50.096;20.082;2023-11-22T12:09:48;18.30;;;9.60;;
67640;SDS011;54434;50.096;20.082;2023-11-22T12:12:25;16.20;;;8.80;;
67640;SDS011;54434;50.096;20.082;2023-11-22T12:15:02;17.10;;;9.30;;
67640;SDS011;54434;50.096;20.082;2023-11-22T12:17:40;17.10;;;9.30;;
67640;SDS011;54434;50.096;20.082;2023-11-22T12:20:18;18.10;;;8.90;;
67640;SDS011;54434;50.096;20.082;2023-11-22T12:22:55;23.00;;;11.20;;
67640;SDS011;54434;50.096;20.082;2023-11-22T12:25:32;21.60;;;9.80;;
67640;SDS011;54434;50.096;20.082;2023-11-22T12:28:11;17.00;;;9.50;;
67640;SDS011;54434;50.096;20.082;2023-11-22T12:30:47;18.10;;;8.70;;
67640;SDS011;54434;50.096;20.082;2023-11-22T12:33:24;17.00;;;9.10;;
67640;SDS011;54434;50.096;20.082;2023-11-22T12:36:03;22.00;;;11.30;;
67640;SDS011;54434;50.096;20.082;2023-11-22T12:38:43;20.20;;;9.90;;
67640;SDS011;54434;50.096;20.082;2023-11-22T12:41:22;18.20;;;9.70;;
67640;SDS011;54434;50.096;20.082;2023-11-22T12:44:07;18.10;;;9.30;;
67640;SDS011;54434;50.096;20.082;2023-11-22T12:46:51;19.80;;;10.10;;
67640;SDS011;54434;50.096;20.082;2023-11-22T12:49:30;18.80;;;9.70;;
67640;SDS011;54434;50.096;20.082;2023-11-22T12:52:17;20.20;;;10.40;;
67640;SDS011;54434;50.096;20.082;2023-11-22T12:55:00;18.00;;;8.60;;
67640;SDS011;54434;50.096;20.082;2023-11-22T12:57:38;24.30;;;11.40;;
67640;SDS011;54434;50.096;20.082;2023-11-22T13:00:21;21.20;;;9.60;;
67640;SDS011;54434;50.096;20.082;2023-11-22T13:02:57;21.80;;;10.50;;
67640;SDS011;54434;50.096;20.082;2023-11-22T13:05:37;19.70;;;9.80;;
67640;SDS011;54434;50.096;20.082;2023-11-22T13:08:16;20.30;;;10.30;;
67640;SDS011;54434;50.096;20.082;2023-11-22T13:10:55;23.10;;;11.20;;
67640;SDS011;54434;50.096;20.082;2023-11-22T13:13:32;21.20;;;10.10;;
67640;SDS011;54434;50.096;20.082;2023-11-22T13:16:11;24.20;;;10.70;;
67640;SDS011;54434;50.096;20.082;2023-11-22T13:18:49;17.20;;;8.70;;
67640;SDS011;54434;50.096;20.082;2023-11-22T13:21:26;21.50;;;10.60;;
67640;SDS011;54434;50.096;20.082;2023-11-22T13:24:02;20.60;;;10.00;;
67640;SDS011;54434;50.096;20.082;2023-11-22T13:26:40;21.80;;;10.20;;
67640;SDS011;54434;50.096;20.082;2023-11-22T13:29:16;22.10;;;9.90;;
67640;SDS011;54434;50.096;20.082;2023-11-22T13:31:53;26.20;;;11.90;;
67640;SDS011;54434;50.096;20.082;2023-11-22T13:34:29;19.80;;;10.20;;
67640;SDS011;54434;50.096;20.082;2023-11-22T13:37:05;20.90;;;9.60;;
67640;SDS011;54434;50.096;20.082;2023-11-22T13:39:42;21.90;;;10.20;;
67640;SDS011;54434;50.096;20.082;2023-11-22T13:42:18;22.30;;;11.30;;
67640;SDS011;54434;50.096;20.082;2023-11-22T13:44:54;23.20;;;10.20;;
67640;SDS011;54434;50.096;20.082;2023-11-22T13:47:30;22.50;;;11.90;;
67640;SDS011;54434;50.096;20.082;2023-11-22T13:50:09;27.70;;;11.60;;
67640;SDS011;54434;50.096;20.082;2023-11-22T13:52:48;19.60;;;9.40;;
67640;SDS011;54434;50.096;20.082;2023-11-22T13:55:25;22.80;;;11.00;;
67640;SDS011;54434;50.096;20.082;2023-11-22T13:58:01;24.00;;;11.20;;
67640;SDS011;54434;50.096;20.082;2023-11-22T14:00:39;19.80;;;9.50;;
67640;SDS011;54434;50.096;20.082;2023-11-22T14:03:16;22.20;;;9.60;;
67640;SDS011;54434;50.096;20.082;2023-11-22T14:05:53;19.30;;;9.90;;
67640;SDS011;54434;50.096;20.082;2023-11-22T14:08:30;22.80;;;11.10;;
67640;SDS011;54434;50.096;20.082;2023-11-22T14:11:08;21.90;;;10.80;;
67640;SDS011;54434;50.096;20.082;2023-11-22T14:13:45;19.50;;;9.00;;
67640;SDS011;54434;50.096;20.082;2023-11-22T14:16:21;26.10;;;11.00;;
67640;SDS011;54434;50.096;20.082;2023-11-22T14:18:59;18.70;;;9.20;;
67640;SDS011;54434;50.096;20.082;2023-11-22T14:21:36;23.60;;;10.20;;
67640;SDS011;54434;50.096;20.082;2023-11-22T14:24:13;24.80;;;11.20;;
67640;SDS011;54434;50.096;20.082;2023-11-22T14:26:49;21.80;;;9.80;;
67640;SDS011;54434;50.096;20.082;2023-11-22T14:29:25;21.00;;;10.70;;
67640;SDS011;54434;50.096;20.082;2023-11-22T14:32:02;19.40;;;9.70;;
67640;SDS011;54434;50.096;20.082;2023-11-22T14:34:40;18.60;;;9.10;;
67640;SDS011;54434;50.096;20.082;2023-11-22T14:37:18;20.70;;;9.40;;
67640;SDS011;54434;50.096;20.082;2023-11-22T14:39:54;19.90;;;9.60;;
67640;SDS011;54434;50.096;20.082;2023-11-22T14:42:31;18.50;;;8.60;;
67640;SDS011;54434;50.096;20.082;2023-11-22T14:45:09;21.90;;;10.70;;
67640;SDS011;54434;50.096;20.082;2023-11-22T14:47:46;22.60;;;10.90;;
67640;SDS011;54434;50.096;20.082;2023-11-22T14:50:25;19.20;;;9.50;;
67640;SDS011;54434;50.096;20.082;2023-11-22T14:53:02;18.10;;;9.00;;
67640;SDS011;54434;50.096;20.082;2023-11-22T14:55:40;15.60;;;8.10;;
67640;SDS011;54434;50.096;20.082;2023-11-22T14:58:17;14.80;;;7.40;;
67640;SDS011;54434;50.096;20.082;2023-11-22T15:00:53;18.00;;;7.90;;
67640;SDS011;54434;50.096;20.082;2023-11-22T15:03:30;19.40;;;8.80;;
67640;SDS011;54434;50.096;20.082;2023-11-22T15:06:09;18.40;;;8.70;;
67640;SDS011;54434;50.096;20.082;2023-11-22T15:08:45;13.90;;;7.40;;
67640;SDS011;54434;50.096;20.082;2023-11-22T15:11:22;17.70;;;8.70;;
67640;SDS011;54434;50.096;20.082;2023-11-22T15:13:59;15.90;;;7.10;;
67640;SDS011;54434;50.096;20.082;2023-11-22T15:16:36;14.40;;;7.10;;